createdAt,value
2018-09-25T00:01:02.520Z,9.80
2018-09-25T00:03:36.174Z,11.70
2018-09-25T00:06:10.014Z,8.37
2018-09-25T00:08:43.837Z,5.30
2018-09-25T00:11:17.658Z,6.63
2018-09-25T00:13:51.429Z,5.03
2018-09-25T00:16:25.149Z,8.23
2018-09-25T00:18:58.700Z,11.40
2018-09-25T00:21:32.508Z,5.93
2018-09-25T00:24:06.278Z,8.17
2018-09-25T00:26:39.977Z,8.30
2018-09-25T00:29:13.742Z,7.70
2018-09-25T00:31:47.491Z,4.80
2018-09-25T00:34:21.460Z,8.00
2018-09-25T00:36:55.251Z,6.13
2018-09-25T00:39:29.053Z,6.03
2018-09-25T00:42:02.849Z,5.53
2018-09-25T00:44:36.377Z,3.77
2018-09-25T00:47:10.180Z,7.60
2018-09-25T00:49:43.781Z,6.73
2018-09-25T00:52:17.507Z,5.47
2018-09-25T00:54:51.124Z,6.07
2018-09-25T00:57:25.044Z,6.20
2018-09-25T00:59:58.769Z,7.37
2018-09-25T01:02:33.548Z,4.30
2018-09-25T01:05:07.318Z,8.00
2018-09-25T01:07:41.158Z,6.20
2018-09-25T01:10:14.916Z,5.57
2018-09-25T01:12:48.443Z,5.37
2018-09-25T01:15:22.025Z,6.13
2018-09-25T01:17:55.819Z,6.63
2018-09-25T01:20:29.552Z,7.33
2018-09-25T01:23:03.211Z,10.07
2018-09-25T01:25:36.941Z,4.93
2018-09-25T01:28:10.729Z,6.93
2018-09-25T01:30:44.534Z,6.63
2018-09-25T01:33:18.007Z,4.30
2018-09-25T01:35:51.766Z,3.50
2018-09-25T01:38:25.452Z,5.30
2018-09-25T01:40:59.172Z,9.10
2018-09-25T01:43:32.840Z,6.73
2018-09-25T01:46:06.612Z,4.90
2018-09-25T01:48:40.169Z,4.90
2018-09-25T01:51:13.938Z,6.20
2018-09-25T01:53:47.456Z,12.63
2018-09-25T01:56:21.135Z,5.67
2018-09-25T01:58:54.936Z,6.33
2018-09-25T02:01:28.732Z,5.07
2018-09-25T02:04:02.398Z,3.10
2018-09-25T02:06:36.104Z,13.17
2018-09-25T02:09:10.477Z,4.03
2018-09-25T02:11:44.258Z,5.43
2018-09-25T02:14:17.908Z,3.60
2018-09-25T02:16:51.689Z,3.10
2018-09-25T02:19:25.369Z,6.33
2018-09-25T02:21:59.177Z,4.80
2018-09-25T02:24:32.748Z,7.27
2018-09-25T02:27:06.498Z,4.50
2018-09-25T02:29:40.148Z,6.87
2018-09-25T02:32:13.838Z,5.00
2018-09-25T02:34:47.530Z,7.30
2018-09-25T02:37:21.053Z,4.93
2018-09-25T02:39:54.789Z,5.03
2018-09-25T02:42:28.574Z,7.87
2018-09-25T02:45:03.019Z,12.20
2018-09-25T02:47:36.636Z,6.77
2018-09-25T02:50:10.368Z,7.03
2018-09-25T02:52:44.028Z,5.97
2018-09-25T02:55:18.398Z,8.13
2018-09-25T02:57:52.002Z,4.37
2018-09-25T03:00:25.632Z,7.20
2018-09-25T03:02:59.443Z,5.03
2018-09-25T03:05:33.280Z,4.60
2018-09-25T03:08:06.980Z,8.17
2018-09-25T03:10:40.744Z,5.53
2018-09-25T03:13:14.266Z,10.63
2018-09-25T03:15:48.000Z,7.53
2018-09-25T03:18:21.712Z,5.47
2018-09-25T03:20:55.440Z,4.90
2018-09-25T03:23:29.216Z,5.37
2018-09-25T03:26:02.866Z,8.40
2018-09-25T03:28:36.647Z,6.77
2018-09-25T03:31:10.884Z,9.63
2018-09-25T03:33:44.562Z,6.10
2018-09-25T03:36:18.341Z,9.60
2018-09-25T03:38:52.065Z,13.83
2018-09-25T03:41:25.713Z,10.40
2018-09-25T03:43:59.572Z,9.10
2018-09-25T03:46:33.305Z,6.20
2018-09-25T03:49:06.928Z,14.23
2018-09-25T03:51:40.654Z,8.63
2018-09-25T03:54:14.333Z,7.00
2018-09-25T03:56:48.021Z,6.40
2018-09-25T03:59:21.736Z,12.70
2018-09-25T04:01:55.276Z,6.97
2018-09-25T04:04:28.907Z,10.00
2018-09-25T04:07:02.790Z,7.20
2018-09-25T04:09:36.525Z,4.83
2018-09-25T04:12:10.258Z,6.40
2018-09-25T04:14:44.010Z,7.57
2018-09-25T04:17:17.734Z,8.43
2018-09-25T04:19:51.549Z,4.77
2018-09-25T04:22:25.316Z,12.13
2018-09-25T04:24:58.781Z,13.67
2018-09-25T04:27:32.328Z,6.50
2018-09-25T04:30:06.062Z,8.40
2018-09-25T04:32:39.837Z,5.07
2018-09-25T04:35:13.652Z,7.33
2018-09-25T04:37:47.440Z,8.20
2018-09-25T04:40:21.180Z,4.93
2018-09-25T04:42:54.965Z,9.13
2018-09-25T04:45:28.690Z,6.80
2018-09-25T04:48:02.449Z,4.53
2018-09-25T04:50:36.122Z,6.53
2018-09-25T04:53:09.798Z,8.87
2018-09-25T04:55:43.249Z,6.90
2018-09-25T04:58:16.745Z,7.73
2018-09-25T05:00:50.522Z,9.67
2018-09-25T05:03:24.176Z,12.53
2018-09-25T05:05:57.918Z,14.60
2018-09-25T05:08:31.596Z,5.27
2018-09-25T05:11:05.128Z,7.20
2018-09-25T05:13:38.932Z,15.70
2018-09-25T05:16:12.708Z,11.40
2018-09-25T05:18:46.444Z,9.43
2018-09-25T05:21:20.288Z,8.33
2018-09-25T05:23:54.062Z,6.60
2018-09-25T05:26:27.972Z,5.73
2018-09-25T05:29:01.667Z,8.90
2018-09-25T05:31:35.284Z,8.63
2018-09-25T05:34:08.970Z,9.13
2018-09-25T05:36:42.699Z,8.30
2018-09-25T05:39:16.452Z,6.07
2018-09-25T05:41:50.090Z,13.73
2018-09-25T05:44:23.968Z,11.67
2018-09-25T05:46:57.610Z,9.30
2018-09-25T05:49:31.456Z,7.43
2018-09-25T05:52:05.175Z,17.87
2018-09-25T05:54:38.955Z,12.00
2018-09-25T05:57:12.652Z,10.30
2018-09-25T05:59:46.267Z,9.60
2018-09-25T06:02:19.950Z,15.13
2018-09-25T06:04:53.655Z,11.93
2018-09-25T06:07:27.440Z,8.80
2018-09-25T06:10:01.144Z,13.70
2018-09-25T06:12:34.921Z,10.73
2018-09-25T06:15:08.652Z,12.40
2018-09-25T06:17:42.303Z,7.67
2018-09-25T06:20:16.052Z,6.80
2018-09-25T06:22:49.741Z,7.13
2018-09-25T06:25:23.279Z,9.03
2018-09-25T06:27:56.964Z,14.90
2018-09-25T06:30:30.633Z,13.73
2018-09-25T06:33:04.415Z,13.70
2018-09-25T06:35:37.980Z,11.63
2018-09-25T06:38:11.639Z,18.30
2018-09-25T06:40:45.368Z,14.93
2018-09-25T06:43:19.175Z,15.13
2018-09-25T06:45:52.867Z,22.80
2018-09-25T06:48:26.496Z,20.53
2018-09-25T06:51:00.317Z,19.17
2018-09-25T06:53:34.069Z,22.53
2018-09-25T06:56:07.798Z,14.20
2018-09-25T06:58:41.560Z,20.40
2018-09-25T07:01:15.349Z,16.80
2018-09-25T07:03:49.045Z,19.93
2018-09-25T07:06:22.870Z,24.13
2018-09-25T07:08:56.684Z,17.67
2018-09-25T07:11:30.342Z,21.13
2018-09-25T07:14:04.031Z,17.63
2018-09-25T07:16:37.823Z,19.93
2018-09-25T07:19:11.669Z,13.33
2018-09-25T07:21:45.308Z,19.70
2018-09-25T07:24:19.064Z,23.00
2018-09-25T07:26:52.805Z,19.53
2018-09-25T07:29:26.563Z,25.50
2018-09-25T07:32:00.217Z,22.90
2018-09-25T07:34:33.924Z,21.53
2018-09-25T07:37:07.731Z,19.50
2018-09-25T07:39:41.437Z,29.33
2018-09-25T07:42:15.090Z,25.57
2018-09-25T07:44:48.866Z,23.97
2018-09-25T07:47:22.555Z,20.93
2018-09-25T07:49:56.299Z,21.60
2018-09-25T07:52:30.059Z,17.47
2018-09-25T07:55:03.867Z,32.23
2018-09-25T07:57:37.577Z,24.93
2018-09-25T08:00:11.438Z,22.03
2018-09-25T08:02:45.000Z,25.83
2018-09-25T08:05:18.662Z,21.97
2018-09-25T08:07:52.435Z,25.30
2018-09-25T08:10:25.972Z,26.70
2018-09-25T08:12:59.550Z,21.53
2018-09-25T08:15:33.421Z,20.97
2018-09-25T08:18:06.949Z,25.97
2018-09-25T08:20:40.638Z,28.83
2018-09-25T08:23:14.409Z,20.00
2018-09-25T08:25:48.086Z,24.90
2018-09-25T08:28:21.736Z,27.00
2018-09-25T08:30:55.353Z,26.87
2018-09-25T08:33:29.097Z,31.77
2018-09-25T08:36:03.284Z,25.90
2018-09-25T08:38:37.099Z,32.40
2018-09-25T08:41:10.838Z,27.87
2018-09-25T08:43:44.602Z,26.03
2018-09-25T08:46:18.218Z,24.90
2018-09-25T08:48:51.903Z,26.40
2018-09-25T08:51:25.496Z,27.83
2018-09-25T08:53:59.285Z,26.47
2018-09-25T08:56:33.122Z,29.30
2018-09-25T08:59:06.919Z,30.67
2018-09-25T09:01:40.614Z,32.43
2018-09-25T09:04:14.421Z,30.67
2018-09-25T09:06:48.349Z,33.83
2018-09-25T09:09:22.110Z,22.10
2018-09-25T09:11:55.980Z,26.90
2018-09-25T09:14:29.749Z,26.70
2018-09-25T09:17:03.583Z,28.30
2018-09-25T09:19:37.376Z,24.63
2018-09-25T09:22:11.133Z,27.57
2018-09-25T09:24:44.875Z,24.43
2018-09-25T09:27:18.553Z,24.90
2018-09-25T09:29:52.075Z,23.13
2018-09-25T09:32:25.740Z,21.17
2018-09-25T09:34:59.493Z,19.60
2018-09-25T09:37:33.164Z,28.83
2018-09-25T09:40:06.980Z,18.77
2018-09-25T09:42:40.757Z,15.03
2018-09-25T09:45:14.477Z,18.60
2018-09-25T09:47:48.309Z,16.40
2018-09-25T09:50:22.163Z,14.10
2018-09-25T09:52:55.768Z,11.87
2018-09-25T09:55:29.544Z,13.13
2018-09-25T09:58:03.134Z,7.93
2018-09-25T10:00:36.730Z,10.87
2018-09-25T10:03:10.420Z,11.20
2018-09-25T10:05:44.596Z,14.40
2018-09-25T10:08:18.127Z,8.13
2018-09-25T10:10:51.616Z,24.27
2018-09-25T10:13:25.245Z,18.80
2018-09-25T10:15:59.085Z,15.00
2018-09-25T10:18:32.646Z,10.87
2018-09-25T10:21:06.520Z,8.60
2018-09-25T10:23:40.248Z,9.90
2018-09-25T10:26:14.282Z,10.23
2018-09-25T10:28:48.028Z,13.30
2018-09-25T10:31:21.525Z,12.93
2018-09-25T10:33:55.153Z,6.60
2018-09-25T10:36:28.816Z,9.77
2018-09-25T10:39:02.599Z,11.67
2018-09-25T10:41:36.265Z,12.40
2018-09-25T10:44:10.146Z,6.80
2018-09-25T10:46:43.886Z,10.07
2018-09-25T10:49:17.621Z,13.07
2018-09-25T10:51:51.253Z,14.70
2018-09-25T10:54:24.968Z,8.77
2018-09-25T10:56:58.544Z,12.43
2018-09-25T10:59:32.327Z,11.03
2018-09-25T11:02:06.210Z,9.20
2018-09-25T11:04:39.838Z,11.43
2018-09-25T11:07:13.548Z,13.63
2018-09-25T11:09:47.165Z,11.33
2018-09-25T11:12:20.943Z,15.43
2018-09-25T11:14:54.680Z,9.37
2018-09-25T11:17:28.472Z,12.50
2018-09-25T11:20:02.301Z,9.93
2018-09-25T11:22:36.024Z,7.23
2018-09-25T11:25:09.814Z,6.97
2018-09-25T11:27:43.569Z,14.20
2018-09-25T11:30:17.389Z,7.43
2018-09-25T11:32:51.137Z,14.90
2018-09-25T11:35:24.845Z,12.37
2018-09-25T11:37:58.610Z,11.00
2018-09-25T11:40:32.319Z,7.77
2018-09-25T11:43:06.109Z,14.43
2018-09-25T11:45:39.882Z,3.97
2018-09-25T11:48:13.480Z,3.60
2018-09-25T11:50:47.044Z,6.00
2018-09-25T11:53:20.723Z,7.10
2018-09-25T11:55:54.279Z,4.70
2018-09-25T11:58:28.023Z,5.17
2018-09-25T12:01:01.752Z,6.13
2018-09-25T12:03:35.423Z,7.73
2018-09-25T12:06:09.187Z,7.60
2018-09-25T12:08:42.767Z,4.20
2018-09-25T12:11:16.481Z,4.60
2018-09-25T12:13:50.510Z,10.00
2018-09-25T12:16:24.166Z,5.93
2018-09-25T12:18:57.795Z,5.80
2018-09-25T12:21:31.587Z,11.73
2018-09-25T12:24:05.420Z,4.63
2018-09-25T12:26:39.213Z,5.83
2018-09-25T12:29:12.897Z,6.00
2018-09-25T12:31:46.676Z,8.30
2018-09-25T12:34:21.080Z,6.07
2018-09-25T12:36:54.853Z,6.83
2018-09-25T12:39:28.574Z,8.23
2018-09-25T12:42:02.195Z,7.63
2018-09-25T12:44:35.941Z,8.70
2018-09-25T12:47:09.616Z,9.90
2018-09-25T12:49:43.260Z,8.13
2018-09-25T12:52:16.853Z,5.00
2018-09-25T12:54:50.519Z,9.50
2018-09-25T12:57:24.129Z,8.43
2018-09-25T12:59:57.737Z,8.93
2018-09-25T13:02:31.408Z,12.73
2018-09-25T13:05:05.024Z,6.93
2018-09-25T13:07:38.811Z,8.60
2018-09-25T13:10:12.492Z,6.80
2018-09-25T13:12:46.341Z,6.10
2018-09-25T13:15:19.967Z,8.00
2018-09-25T13:17:53.633Z,5.20
2018-09-25T13:20:27.350Z,5.73
2018-09-25T13:23:00.996Z,4.67
2018-09-25T13:25:34.488Z,4.13
2018-09-25T13:28:08.206Z,7.57
2018-09-25T13:30:41.790Z,7.90
2018-09-25T13:33:15.352Z,4.57
2018-09-25T13:35:49.067Z,4.27
2018-09-25T13:38:22.701Z,4.20
2018-09-25T13:40:56.445Z,8.30
2018-09-25T13:43:29.929Z,4.67
2018-09-25T13:46:03.645Z,4.53
2018-09-25T13:48:37.353Z,4.90
2018-09-25T13:51:10.973Z,5.83
2018-09-25T13:53:44.675Z,9.20
2018-09-25T13:56:18.153Z,7.50
2018-09-25T13:58:51.909Z,3.33
2018-09-25T14:01:25.556Z,7.90
2018-09-25T14:03:59.288Z,4.30
2018-09-25T14:06:32.977Z,3.90
2018-09-25T14:09:06.776Z,5.13
2018-09-25T14:11:40.478Z,7.33
2018-09-25T14:14:14.275Z,7.87
2018-09-25T14:16:47.788Z,4.13
2018-09-25T14:19:21.417Z,10.07
2018-09-25T14:21:55.191Z,5.40
2018-09-25T14:24:28.937Z,9.50
2018-09-25T14:27:02.567Z,8.27
2018-09-25T14:29:36.243Z,10.47
2018-09-25T14:32:09.953Z,6.43
2018-09-25T14:34:43.762Z,3.40
2018-09-25T14:37:17.422Z,5.93
2018-09-25T14:39:51.250Z,5.00
2018-09-25T14:42:25.036Z,8.83
2018-09-25T14:44:58.738Z,6.33
2018-09-25T14:47:32.450Z,3.87
2018-09-25T14:50:06.097Z,2.50
2018-09-25T14:52:39.787Z,3.87
2018-09-25T14:55:13.617Z,8.27
2018-09-25T14:57:47.283Z,4.60
2018-09-25T15:00:21.065Z,5.20
2018-09-25T15:02:54.642Z,7.60
2018-09-25T15:05:28.440Z,5.87
2018-09-25T15:08:02.108Z,3.40
2018-09-25T15:10:35.689Z,4.20
2018-09-25T15:13:09.277Z,4.43
2018-09-25T15:15:42.928Z,3.43
2018-09-25T15:18:16.559Z,9.83
2018-09-25T15:20:50.283Z,11.00
2018-09-25T15:23:24.109Z,10.20
2018-09-25T15:25:57.724Z,3.80
2018-09-25T15:28:31.470Z,6.37
2018-09-25T15:31:05.200Z,7.47
2018-09-25T15:33:38.962Z,7.70
2018-09-25T15:36:12.706Z,7.87
2018-09-25T15:38:46.489Z,8.40
2018-09-25T15:41:20.206Z,4.87
2018-09-25T15:43:53.952Z,3.40
2018-09-25T15:46:27.777Z,5.63
2018-09-25T15:49:01.288Z,4.97
2018-09-25T15:51:35.130Z,8.37
2018-09-25T15:54:08.788Z,4.80
2018-09-25T15:56:42.501Z,2.20
2018-09-25T15:59:16.285Z,6.53
2018-09-25T16:01:50.013Z,4.40
2018-09-25T16:04:23.636Z,6.97
2018-09-25T16:06:57.377Z,4.97
2018-09-25T16:09:31.151Z,6.00
2018-09-25T16:12:04.949Z,7.13
2018-09-25T16:14:38.658Z,6.90
2018-09-25T16:17:12.550Z,4.50
2018-09-25T16:19:46.179Z,5.47
2018-09-25T16:22:19.830Z,2.87
2018-09-25T16:24:53.581Z,9.63
2018-09-25T16:27:27.283Z,4.50
2018-09-25T16:30:01.013Z,4.00
2018-09-25T16:32:34.840Z,7.80
2018-09-25T16:35:08.352Z,7.77
2018-09-25T16:37:42.057Z,4.70
2018-09-25T16:40:15.841Z,10.50
2018-09-25T16:42:49.557Z,4.20
2018-09-25T16:45:23.100Z,6.60
2018-09-25T16:47:56.787Z,6.77
2018-09-25T16:50:30.602Z,3.50
2018-09-25T16:53:11.100Z,7.20
2018-09-25T16:55:44.836Z,5.40
2018-09-25T16:58:18.635Z,4.27
2018-09-25T17:00:52.398Z,8.77
2018-09-25T17:03:26.202Z,6.83
2018-09-25T17:05:59.991Z,6.23
2018-09-25T17:08:33.699Z,6.73
2018-09-25T17:11:07.320Z,10.10
2018-09-25T17:13:41.046Z,12.57
2018-09-25T17:16:14.749Z,6.63
2018-09-25T17:18:48.339Z,4.53
2018-09-25T17:21:22.137Z,8.00
2018-09-25T17:23:55.853Z,6.20
2018-09-25T17:26:29.689Z,5.93
2018-09-25T17:29:03.343Z,9.23
2018-09-25T17:31:37.046Z,3.83
2018-09-25T17:34:10.825Z,4.90
2018-09-25T17:36:44.645Z,13.87
2018-09-25T17:39:18.242Z,11.00
2018-09-25T17:41:51.901Z,8.60
2018-09-25T17:44:25.685Z,5.50
2018-09-25T17:46:59.298Z,4.80
2018-09-25T17:49:32.910Z,4.43
2018-09-25T17:52:06.489Z,4.03
2018-09-25T17:54:40.073Z,5.07
2018-09-25T17:57:13.845Z,4.63
2018-09-25T17:59:47.652Z,6.90
2018-09-25T18:02:21.254Z,8.57
2018-09-25T18:04:54.853Z,11.07
2018-09-25T18:07:28.594Z,9.63
2018-09-25T18:10:02.257Z,5.00
2018-09-25T18:12:35.945Z,5.20
2018-09-25T18:15:09.618Z,9.67
2018-09-25T18:17:43.242Z,7.50
2018-09-25T18:20:16.899Z,5.07
2018-09-25T18:22:50.546Z,7.23
2018-09-25T18:25:24.129Z,4.77
2018-09-25T18:27:57.895Z,5.83
2018-09-25T18:30:31.523Z,6.30
2018-09-25T18:33:05.151Z,5.73
2018-09-25T18:35:39.014Z,7.20
2018-09-25T18:38:12.721Z,8.17
2018-09-25T18:40:46.397Z,5.03
2018-09-25T18:43:20.136Z,5.00
2018-09-25T18:45:53.765Z,4.90
2018-09-25T18:48:27.508Z,7.13
2018-09-25T18:51:01.283Z,4.77
2018-09-25T18:53:34.876Z,5.97
2018-09-25T18:56:08.616Z,14.73
2018-09-25T18:58:42.461Z,5.37
2018-09-25T19:01:16.061Z,7.07
2018-09-25T19:03:49.917Z,5.47
2018-09-25T19:06:23.559Z,4.30
2018-09-25T19:08:57.140Z,6.13
2018-09-25T19:11:44.789Z,7.63
2018-09-25T19:14:18.587Z,10.20
2018-09-25T19:16:52.253Z,8.00
2018-09-25T19:19:25.912Z,9.50
2018-09-25T19:21:59.661Z,8.53
2018-09-25T19:24:33.303Z,3.40
2018-09-25T19:27:06.968Z,6.30
2018-09-25T19:29:40.613Z,6.23
2018-09-25T19:32:14.387Z,7.90
2018-09-25T19:34:48.046Z,8.40
2018-09-25T19:37:21.736Z,5.20
2018-09-25T19:39:55.417Z,6.90
2018-09-25T19:42:29.119Z,5.63
2018-09-25T19:45:02.786Z,6.30
2018-09-25T19:47:36.461Z,12.00
2018-09-25T19:50:10.292Z,4.17
2018-09-25T19:52:44.076Z,8.17
2018-09-25T19:55:17.790Z,6.00
2018-09-25T19:57:51.580Z,9.67
2018-09-25T20:00:25.240Z,30.67
2018-09-25T20:02:58.934Z,9.77
2018-09-25T20:05:32.708Z,9.80
2018-09-25T20:08:06.481Z,8.93
2018-09-25T20:10:40.248Z,5.17
2018-09-25T20:13:13.909Z,4.63
2018-09-25T20:15:47.745Z,3.50
2018-09-25T20:18:21.589Z,9.20
2018-09-25T20:20:55.376Z,5.30
2018-09-25T20:23:29.048Z,5.87
2018-09-25T20:26:02.825Z,8.43
2018-09-25T20:28:36.447Z,7.83
2018-09-25T20:31:10.003Z,11.17
2018-09-25T20:33:43.808Z,13.70
2018-09-25T20:36:17.617Z,6.37
2018-09-25T20:38:51.385Z,10.10
2018-09-25T20:41:25.105Z,7.70
2018-09-25T20:43:58.792Z,9.33
2018-09-25T20:46:32.493Z,9.13
2018-09-25T20:49:06.062Z,6.57
2018-09-25T20:51:39.899Z,10.93
2018-09-25T20:54:13.674Z,9.20
2018-09-25T20:56:47.465Z,8.80
2018-09-25T20:59:21.160Z,5.80
2018-09-25T21:01:54.804Z,6.97
2018-09-25T21:04:28.539Z,12.30
2018-09-25T21:07:02.241Z,8.93
2018-09-25T21:09:35.883Z,4.70
2018-09-25T21:12:09.579Z,12.50
2018-09-25T21:14:43.371Z,5.70
2018-09-25T21:17:17.065Z,10.37
2018-09-25T21:19:50.687Z,10.30
2018-09-25T21:22:24.432Z,7.57
2018-09-25T21:24:58.274Z,7.97
2018-09-25T21:27:32.135Z,7.10
2018-09-25T21:30:05.876Z,9.17
2018-09-25T21:32:39.551Z,5.70
2018-09-25T21:35:13.259Z,10.90
2018-09-25T21:37:47.100Z,10.60
2018-09-25T21:40:20.837Z,16.43
2018-09-25T21:42:54.424Z,11.53
2018-09-25T21:45:28.123Z,6.20
2018-09-25T21:48:01.892Z,8.17
2018-09-25T21:50:35.596Z,8.33
2018-09-25T21:53:09.172Z,9.13
2018-09-25T21:55:47.302Z,6.70
2018-09-25T21:58:21.013Z,5.53
2018-09-25T22:00:54.556Z,5.70
2018-09-25T22:03:28.278Z,5.63
2018-09-25T22:06:01.988Z,9.37
2018-09-25T22:08:35.684Z,3.80
2018-09-25T22:11:09.390Z,6.97
2018-09-25T22:13:43.057Z,8.13
2018-09-25T22:16:16.786Z,5.70
2018-09-25T22:18:50.273Z,7.10
2018-09-25T22:21:23.965Z,8.83
2018-09-25T22:23:57.584Z,6.57
2018-09-25T22:26:31.242Z,5.90
2018-09-25T22:29:04.910Z,6.73
2018-09-25T22:31:38.613Z,8.00
2018-09-25T22:34:12.170Z,8.87
2018-09-25T22:36:45.889Z,10.90
2018-09-25T22:39:19.588Z,4.83
2018-09-25T22:41:53.339Z,9.83
2018-09-25T22:44:27.004Z,8.80
2018-09-25T22:47:00.702Z,5.27
2018-09-25T22:49:34.319Z,7.37
2018-09-25T22:52:07.883Z,7.87
2018-09-25T22:54:41.691Z,11.63
2018-09-25T22:57:15.420Z,8.17
2018-09-25T22:59:49.112Z,5.90
2018-09-25T23:02:22.800Z,6.00
2018-09-25T23:04:56.618Z,5.17
2018-09-25T23:07:30.327Z,6.93
2018-09-25T23:10:03.990Z,6.37
2018-09-25T23:12:37.600Z,9.37
2018-09-25T23:15:11.281Z,5.57
2018-09-25T23:17:44.941Z,5.50
2018-09-25T23:20:18.685Z,6.23
2018-09-25T23:22:52.356Z,6.50
2018-09-25T23:25:26.072Z,5.10
2018-09-25T23:27:59.790Z,6.90
2018-09-25T23:30:33.481Z,12.53
2018-09-25T23:33:07.277Z,6.57
2018-09-25T23:35:40.951Z,5.40
2018-09-25T23:38:14.485Z,7.87
2018-09-25T23:41:46.795Z,6.23
2018-09-25T23:44:54.720Z,5.13
2018-09-25T23:47:28.402Z,8.20
2018-09-25T23:50:02.221Z,5.80
2018-09-25T23:52:36.014Z,8.13
2018-09-25T23:55:24.373Z,8.20
2018-09-25T23:58:04.732Z,6.20
